Terminal Aerodrome Forecast
Issued by NWS Tampa Bay Area, FL

Home | Current Version | Previous Version | Text Only | Print | Product List | Glossary On
Versions: 1 2 3 4 5 6 7 8 9 10 11 12 13 14 15
000
FTUS42 KTBW 291600 AAC
TAFSRQ
TAF AMD
KSRQ 291604Z 2916/3012 27013G20KT P6SM VCTS SCT030CB BKN100
      TEMPO 2916/2919 VRB15G25KT 4SM TSRA BKN025CB
     FM292200 27010KT P6SM VCTS SCT030CB BKN100
     FM300100 26008KT P6SM VCSH SCT025 SCT100 BKN250=

USA.gov is the U.S. government's official web portal to all federal, state and local government web resources and services.